Time;durP1;ratioP1;P1;durP2;ratioP2;P2;SDS_P1;SDS_P2;PMS_P1;PMS_P2;Temp;Humidity;BMP_temperature;BMP_pressure;BME280_temperature;BME280_humidity;BME280_pressure;Samples;Min_cycle;Max_cycle;Signal;HPM_P1;HPM_P2
2023/05/15 00:00:32;;;;;;;;;;;;;;;19.64;62.23;96888.04;619479;228;62732;-60
2023/05/15 00:03:01;;;;;;;;;;;;;;;19.64;61.10;96888.04;619499;229;67229;-60
2023/05/15 00:05:28;;;;;;;;;;;;;;;19.65;61.98;96878.17;619487;229;66967;-60
2023/05/15 00:07:56;;;;;;;;;;;;;;;19.62;61.10;96873.38;619471;228;65106;-60
2023/05/15 00:10:23;;;;;;;;;;;;;;;19.63;60.86;96878.42;619472;228;67159;-60
2023/05/15 00:12:51;;;;;;;;;;;;;;;19.63;61.93;96869.63;619381;228;64741;-60
2023/05/15 00:15:18;;;;;;;;;;;;;;;19.64;61.78;96869.37;619407;229;63837;-60
2023/05/15 00:17:46;;;;;;;;;;;;;;;19.62;59.81;96868.84;619526;229;67163;-60
2023/05/15 00:20:13;;;;;;;;;;;;;;;19.64;61.19;96864.05;619497;228;67274;-60
2023/05/15 00:22:41;;;;;;;;;;;;;;;19.63;62.06;96857.09;619542;229;65118;-60
2023/05/15 00:25:09;;;;;;;;;;;;;;;19.63;60.92;96849.09;619459;229;67188;-60
2023/05/15 00:27:36;;;;;;;;;;;;;;;19.61;60.22;96842.42;619472;229;67017;-59
2023/05/15 00:30:04;;;;;;;;;;;;;;;19.63;62.32;96841.09;619528;229;63836;-59
2023/05/15 00:32:32;;;;;;;;;;;;;;;19.62;62.52;96842.17;619507;229;67220;-59
2023/05/15 00:35:00;;;;;;;;;;;;;;;19.61;60.92;96826.44;619423;229;66827;-59
2023/05/15 00:37:29;;;;;;;;;;;;;;;19.61;60.67;96831.77;619505;228;43755;-60
2023/05/15 00:39:56;;;;;;;;;;;;;;;19.61;61.83;96819.23;619473;229;64272;-60
2023/05/15 00:42:25;;;;;;;;;;;;;;;19.61;60.24;96818.44;619574;229;67487;-60
2023/05/15 00:44:53;;;;;;;;;;;;;;;19.61;60.78;96805.11;619412;229;65801;-60
2023/05/15 00:47:22;;;;;;;;;;;;;;;19.60;58.75;96787.52;619526;229;67406;-60
2023/05/15 00:49:50;;;;;;;;;;;;;;;19.60;61.80;96780.33;619518;229;64823;-59
2023/05/15 00:52:20;;;;;;;;;;;;;;;19.59;60.22;96777.91;619400;229;66073;-59
2023/05/15 00:54:48;;;;;;;;;;;;;;;19.59;62.37;96784.06;619447;229;67831;-59
2023/05/15 00:57:17;;;;;;;;;;;;;;;19.59;61.44;96789.40;619510;228;66977;-59
2023/05/15 00:59:45;;;;;;;;;;;;;;;19.59;61.65;96800.06;619446;229;62967;-59
2023/05/15 01:02:13;;;;;;;;;;;;;;;19.59;61.68;96805.39;619595;229;64966;-59
2023/05/15 01:04:41;;;;;;;;;;;;;;;19.59;61.87;96805.39;619580;229;67334;-59
2023/05/15 01:07:08;;;;;;;;;;;;;;;19.58;61.84;96803.77;619447;229;65399;-59
2023/05/15 01:09:36;;;;;;;;;;;;;;;19.59;61.57;96794.73;619375;229;67004;-59
2023/05/15 01:12:04;;;;;;;;;;;;;;;19.58;61.68;96790.45;619530;228;64761;-59
2023/05/15 01:14:32;;;;;;;;;;;;;;;19.59;61.47;96786.73;619475;229;65060;-59
2023/05/15 01:16:59;;;;;;;;;;;;;;;19.57;62.41;96780.86;619543;228;67996;-59
2023/05/15 01:19:27;;;;;;;;;;;;;;;19.57;62.16;96786.19;619629;228;64783;-59
2023/05/15 01:22:13;;;;;;;;;;;;;;;19.58;61.98;96784.32;619494;229;65803;-59
2023/05/15 01:24:48;;;;;;;;;;;;;;;19.57;61.71;96785.40;619637;229;64867;-59
2023/05/15 01:27:20;;;;;;;;;;;;;;;19.57;62.05;96782.73;619558;228;66773;-59
2023/05/15 01:29:52;;;;;;;;;;;;;;;19.57;61.43;96775.53;619265;228;64868;-59
2023/05/15 01:32:24;;;;;;;;;;;;;;;19.57;60.35;96788.86;619536;228;66990;-59
2023/05/15 01:34:53;;;;;;;;;;;;;;;19.56;60.73;96787.27;619435;229;68398;-60
2023/05/15 01:37:22;;;;;;;;;;;;;;;19.57;61.53;96796.85;619450;229;62752;-60
2023/05/15 01:39:51;;;;;;;;;;;;;;;19.56;60.59;96799.77;619593;229;69759;-60
2023/05/15 01:42:19;;;;;;;;;;;;;;;19.55;61.19;96800.84;619635;228;65693;-60
2023/05/15 01:44:50;;;;;;;;;;;;;;;19.55;61.95;96798.98;614441;229;64969;-60
2023/05/15 01:47:19;;;;;;;;;;;;;;;19.56;61.89;96805.93;619384;228;66817;-60
2023/05/15 01:49:48;;;;;;;;;;;;;;;19.55;62.08;96804.31;619489;228;64826;-60
2023/05/15 01:52:21;;;;;;;;;;;;;;;19.56;62.33;96802.44;619598;229;62495;-60
2023/05/15 01:54:49;;;;;;;;;;;;;;;19.55;61.07;96801.64;619501;228;64670;-60
2023/05/15 01:57:18;;;;;;;;;;;;;;;19.54;62.15;96792.06;619483;229;65039;-60
2023/05/15 01:59:46;;;;;;;;;;;;;;;19.54;62.19;96797.39;619413;229;65076;-60
2023/05/15 02:02:15;;;;;;;;;;;;;;;19.55;63.25;96814.17;619458;229;65391;-60
2023/05/15 02:04:43;;;;;;;;;;;;;;;19.54;59.78;96813.38;619551;228;67096;-60
2023/05/15 02:07:10;;;;;;;;;;;;;;;19.54;61.45;96802.72;619508;229;65885;-60
2023/05/15 02:09:38;;;;;;;;;;;;;;;19.55;62.16;96798.19;619496;229;67963;-60
2023/05/15 02:12:06;;;;;;;;;;;;;;;19.54;62.35;96804.59;620213;227;66873;-60
2023/05/15 02:14:34;;;;;;;;;;;;;;;19.54;62.49;96799.27;623998;227;63056;-60
2023/05/15 02:17:02;;;;;;;;;;;;;;;19.54;61.92;96792.06;623660;227;67195;-60
2023/05/15 02:19:29;;;;;;;;;;;;;;;19.53;61.67;96779.78;623921;227;66839;-60
2023/05/15 02:21:57;;;;;;;;;;;;;;;19.53;61.51;96777.11;623732;227;65003;-60
2023/05/15 02:24:24;;;;;;;;;;;;;;;19.52;61.43;96780.86;623841;227;66939;-60
2023/05/15 02:26:56;;;;;;;;;;;;;;;19.53;62.05;96782.45;623903;227;67161;-60
2023/05/15 02:29:38;;;;;;;;;;;;;;;19.53;61.34;96769.12;623717;227;64892;-60
2023/05/15 02:32:09;;;;;;;;;;;;;;;19.52;62.60;96770.20;623907;227;65600;-60
2023/05/15 02:34:53;;;;;;;;;;;;;;;19.52;61.88;96772.86;623571;227;67020;-60
2023/05/15 02:37:22;;;;;;;;;;;;;;;19.51;61.05;96771.27;623949;227;62895;-60
2023/05/15 02:39:53;;;;;;;;;;;;;;;19.51;61.48;96784.60;623652;227;64807;-60
2023/05/15 02:42:20;;;;;;;;;;;;;;;19.51;62.42;96787.27;623932;227;64785;-60
2023/05/15 02:44:50;;;;;;;;;;;;;;;19.51;61.16;96787.27;623783;227;62980;-59
2023/05/15 02:47:18;;;;;;;;;;;;;;;19.50;62.32;96789.11;623880;227;67369;-59
2023/05/15 02:49:47;;;;;;;;;;;;;;;19.50;62.89;96774.98;623935;227;65384;-59
2023/05/15 02:52:14;;;;;;;;;;;;;;;19.49;61.78;96768.06;623962;227;65777;-59
2023/05/15 02:54:42;;;;;;;;;;;;;;;19.50;61.87;96773.11;623762;227;67221;-59
2023/05/15 02:57:09;;;;;;;;;;;;;;;19.49;61.36;96762.73;623767;227;64671;-59
2023/05/15 02:59:37;;;;;;;;;;;;;;;19.48;61.45;96772.60;622975;227;65055;-59
2023/05/15 03:02:04;;;;;;;;;;;;;;;19.50;62.89;96788.31;623816;227;67015;-59
2023/05/15 03:04:32;;;;;;;;;;;;;;;19.49;62.66;96786.72;623715;227;64478;-59
2023/05/15 03:07:00;;;;;;;;;;;;;;;19.48;61.72;96788.59;624065;227;64569;-59
2023/05/15 03:09:27;;;;;;;;;;;;;;;19.49;62.05;96789.39;623912;227;66673;-58
2023/05/15 03:11:55;;;;;;;;;;;;;;;19.48;62.07;96783.27;623942;227;67428;-58
2023/05/15 03:14:22;;;;;;;;;;;;;;;19.49;60.82;96773.40;623798;227;65152;-59
2023/05/15 03:16:50;;;;;;;;;;;;;;;19.50;61.59;96780.31;624018;227;65482;-59
2023/05/15 03:19:17;;;;;;;;;;;;;;;19.49;60.09;96778.73;624062;227;67526;-59
2023/05/15 03:21:45;;;;;;;;;;;;;;;19.49;61.05;96778.73;623975;227;62761;-59
2023/05/15 03:24:12;;;;;;;;;;;;;;;19.48;62.00;96774.47;623577;227;67642;-59
2023/05/15 03:26:41;;;;;;;;;;;;;;;19.49;62.61;96768.06;624023;227;66823;-59
2023/05/15 03:29:08;;;;;;;;;;;;;;;19.49;62.25;96776.06;623746;227;64887;-59
2023/05/15 03:31:36;;;;;;;;;;;;;;;19.48;61.52;96771.81;623914;227;67030;-59
2023/05/15 03:34:03;;;;;;;;;;;;;;;19.48;62.13;96782.47;623829;227;67955;-59
2023/05/15 03:36:31;;;;;;;;;;;;;;;19.48;61.17;96785.14;623724;227;62536;-59
2023/05/15 03:38:59;;;;;;;;;;;;;;;19.48;62.17;96780.59;624024;227;68099;-59
2023/05/15 03:41:27;;;;;;;;;;;;;;;19.47;61.80;96786.18;623947;227;67410;-59
2023/05/15 03:43:54;;;;;;;;;;;;;;;19.47;62.01;96791.52;623769;227;65012;-59
2023/05/15 03:46:22;;;;;;;;;;;;;;;19.47;61.35;96796.84;623779;227;64929;-60
2023/05/15 03:48:49;;;;;;;;;;;;;;;19.48;62.86;96798.46;623800;227;65067;-60
2023/05/15 03:51:17;;;;;;;;;;;;;;;19.46;61.57;96801.38;624018;227;65206;-59
2023/05/15 03:53:44;;;;;;;;;;;;;;;19.46;61.85;96804.05;623896;227;67157;-60
2023/05/15 03:56:12;;;;;;;;;;;;;;;19.46;61.74;96809.38;623836;227;66783;-60
2023/05/15 03:58:41;;;;;;;;;;;;;;;19.45;62.21;96804.30;623905;227;62505;-60
2023/05/15 04:01:08;;;;;;;;;;;;;;;19.45;60.30;96801.63;623958;227;64967;-60
2023/05/15 04:03:36;;;;;;;;;;;;;;;19.45;61.31;96793.64;623887;227;65448;-60
2023/05/15 04:06:03;;;;;;;;;;;;;;;19.46;62.99;96779.27;623731;227;62891;-60
2023/05/15 04:08:31;;;;;;;;;;;;;;;19.44;60.58;96784.05;622931;227;67212;-60
2023/05/15 04:10:58;;;;;;;;;;;;;;;19.45;60.31;96790.97;623923;227;67036;-59
2023/05/15 04:13:26;;;;;;;;;;;;;;;19.43;58.91;96785.92;622495;227;65087;-60
2023/05/15 04:15:53;;;;;;;;;;;;;;;19.45;60.50;96791.80;623973;227;64799;-60
2023/05/15 04:18:21;;;;;;;;;;;;;;;19.44;60.99;96792.05;624015;227;67079;-60
2023/05/15 04:20:49;;;;;;;;;;;;;;;19.44;61.38;96786.72;623888;227;65013;-61
2023/05/15 04:23:16;;;;;;;;;;;;;;;19.44;62.67;96789.38;623906;227;64694;-61
2023/05/15 04:25:45;;;;;;;;;;;;;;;19.44;61.60;96792.05;623676;227;66859;-61
2023/05/15 04:28:13;;;;;;;;;;;;;;;19.44;63.79;96800.05;623765;227;65098;-61
2023/05/15 04:30:40;;;;;;;;;;;;;;;19.44;60.96;96813.37;623975;227;67409;-61
2023/05/15 04:33:08;;;;;;;;;;;;;;;19.43;60.07;96803.78;623982;227;67028;-61
2023/05/15 04:35:35;;;;;;;;;;;;;;;19.43;61.54;96799.25;623739;227;65183;-61
2023/05/15 04:38:03;;;;;;;;;;;;;;;19.43;60.99;96801.12;623939;227;67197;-61
2023/05/15 04:40:31;;;;;;;;;;;;;;;19.43;61.20;96803.78;623636;227;67041;-61
2023/05/15 04:42:59;;;;;;;;;;;;;;;19.43;62.24;96811.78;623947;227;65024;-61
2023/05/15 04:45:27;;;;;;;;;;;;;;;19.43;62.61;96801.12;623983;227;67104;-61
2023/05/15 04:47:54;;;;;;;;;;;;;;;19.43;61.94;96811.78;623864;227;64877;-61
2023/05/15 04:50:22;;;;;;;;;;;;;;;19.43;62.07;96814.45;623993;227;64877;-61
2023/05/15 04:52:50;;;;;;;;;;;;;;;19.41;61.41;96809.37;623912;227;67266;-61
2023/05/15 04:55:17;;;;;;;;;;;;;;;19.41;60.30;96809.37;623623;227;64767;-61
2023/05/15 04:57:46;;;;;;;;;;;;;;;19.42;62.54;96808.30;623845;227;63029;-61
2023/05/15 05:00:14;;;;;;;;;;;;;;;19.41;60.97;96809.37;623660;227;65018;-61
2023/05/15 05:02:45;;;;;;;;;;;;;;;19.41;60.16;96800.58;623885;227;67127;-61
2023/05/15 05:05:13;;;;;;;;;;;;;;;19.41;61.37;96795.25;623952;227;65123;-61
2023/05/15 05:07:42;;;;;;;;;;;;;;;19.41;61.17;96803.24;623643;227;67313;-61
2023/05/15 05:10:10;;;;;;;;;;;;;;;19.40;61.91;96799.78;623974;227;66846;-61
2023/05/15 05:12:39;;;;;;;;;;;;;;;19.40;60.00;96801.66;623803;227;65102;-61
2023/05/15 05:15:07;;;;;;;;;;;;;;;19.40;60.61;96802.45;623854;227;67193;-61
2023/05/15 05:17:34;;;;;;;;;;;;;;;19.40;62.38;96799.78;623805;227;67480;-61
2023/05/15 05:20:03;;;;;;;;;;;;;;;19.39;61.16;96800.03;624033;227;62900;-61
2023/05/15 05:22:31;;;;;;;;;;;;;;;19.40;61.68;96805.11;623693;227;67251;-61
2023/05/15 05:24:58;;;;;;;;;;;;;;;19.40;61.61;96804.32;623738;227;67055;-61
2023/05/15 05:27:26;;;;;;;;;;;;;;;19.40;61.10;96804.32;624021;227;62844;-61
2023/05/15 05:29:54;;;;;;;;;;;;;;;19.39;61.38;96800.03;623901;227;67257;-61
2023/05/15 05:32:21;;;;;;;;;;;;;;;19.38;61.45;96790.45;624001;227;67073;-61
2023/05/15 05:34:49;;;;;;;;;;;;;;;19.38;61.17;96793.12;623991;227;63034;-60
2023/05/15 05:37:16;;;;;;;;;;;;;;;19.37;61.27;96792.32;623965;227;66974;-60
2023/05/15 05:39:46;;;;;;;;;;;;;;;19.39;61.93;96789.38;624012;227;66997;-60
2023/05/15 05:42:13;;;;;;;;;;;;;;;19.38;60.43;96787.79;623740;227;62953;-60
2023/05/15 05:44:41;;;;;;;;;;;;;;;19.38;60.67;96785.13;623775;227;65215;-60
2023/05/15 05:47:08;;;;;;;;;;;;;;;19.38;61.55;96785.13;624021;227;66835;-60
2023/05/15 05:49:36;;;;;;;;;;;;;;;19.38;62.56;96769.14;623852;227;65109;-60
2023/05/15 05:52:06;;;;;;;;;;;;;;;19.37;61.24;96786.17;623940;227;67189;-60
2023/05/15 05:54:34;;;;;;;;;;;;;;;19.37;60.65;96786.99;623801;227;67114;-60
2023/05/15 05:57:02;;;;;;;;;;;;;;;19.38;60.50;96782.46;623918;227;65119;-60
2023/05/15 05:59:29;;;;;;;;;;;;;;;19.37;60.32;96776.34;623900;227;67200;-61
2023/05/15 06:01:57;;;;;;;;;;;;;;;19.38;61.65;96783.25;623853;227;67072;-61
2023/05/15 06:04:24;;;;;;;;;;;;;;;19.37;60.44;96776.34;622945;227;63675;-58
2023/05/15 06:06:53;;;;;;;;;;;;;;;19.38;61.63;96772.59;622994;225;67263;-60
2023/05/15 06:09:20;;;;;;;;;;;;;;;19.39;62.83;96765.39;621610;225;67233;-58
2023/05/15 06:11:48;;;;;;;;;;;;;;;19.37;60.87;96767.52;619258;224;65161;-59
2023/05/15 06:14:15;;;;;;;;;;;;;;;19.37;61.49;96764.85;620753;225;67184;-58
2023/05/15 06:16:42;;;;;;;;;;;;;;;19.33;61.16;96755.81;627269;225;64908;-60
2023/05/15 06:19:10;;;;;;;;;;;;;;;19.38;61.82;96763.80;630169;225;62686;-60
2023/05/15 06:21:38;;;;;;;;;;;;;;;19.39;61.88;96757.40;630133;225;64879;-59
2023/05/15 06:24:05;;;;;;;;;;;;;;;19.39;62.14;96755.53;630342;225;64613;-58
2023/05/15 06:26:33;;;;;;;;;;;;;;;19.38;60.64;96751.28;630133;225;62912;-60
2023/05/15 06:29:00;;;;;;;;;;;;;;;19.39;60.10;96763.52;630343;225;64911;-60
2023/05/15 06:31:28;;;;;;;;;;;;;;;19.39;60.95;96762.73;630199;225;67437;-60
2023/05/15 06:33:55;;;;;;;;;;;;;;;19.40;61.86;96764.34;630220;225;65024;-60
2023/05/15 06:36:23;;;;;;;;;;;;;;;19.39;60.25;96754.73;630206;225;64878;-60
2023/05/15 06:38:50;;;;;;;;;;;;;;;19.40;61.83;96751.81;630311;225;64569;-60
2023/05/15 06:41:17;;;;;;;;;;;;;;;19.39;62.23;96746.73;630352;225;62936;-60
2023/05/15 06:43:45;;;;;;;;;;;;;;;19.39;61.13;96741.41;630347;225;67341;-60
2023/05/15 06:46:15;;;;;;;;;;;;;;;19.40;62.31;96743.03;630299;225;67127;-60
2023/05/15 06:48:41;;;;;;;;;;;;;;;19.39;60.98;96736.88;629956;225;63816;-60
2023/05/15 06:51:09;;;;;;;;;;;;;;;19.40;61.33;96743.03;630357;225;66848;-60
2023/05/15 06:53:36;;;;;;;;;;;;;;;19.40;62.29;96737.70;630325;225;66838;-60
2023/05/15 06:56:05;;;;;;;;;;;;;;;19.40;62.86;96740.36;630247;225;63007;-60
2023/05/15 06:58:32;;;;;;;;;;;;;;;19.40;63.23;96740.36;630318;225;67293;-59
2023/05/15 07:01:02;;;;;;;;;;;;;;;19.40;63.36;96732.38;630179;225;67066;-60
2023/05/15 07:03:30;;;;;;;;;;;;;;;19.40;62.16;96722.50;630269;225;65121;-60
2023/05/15 07:05:57;;;;;;;;;;;;;;;19.41;62.32;96715.30;630376;225;67278;-60
2023/05/15 07:08:25;;;;;;;;;;;;;;;19.40;62.24;96717.17;630244;225;67089;-60
2023/05/15 07:10:53;;;;;;;;;;;;;;;19.40;62.96;96719.84;630296;225;65076;-60
2023/05/15 07:13:21;;;;;;;;;;;;;;;19.41;63.69;96716.09;629221;224;66854;-59
2023/05/15 07:15:49;;;;;;;;;;;;;;;19.40;62.49;96701.19;627547;226;66895;-59
2023/05/15 07:18:17;;;;;;;;;;;;;;;19.41;62.93;96709.97;627673;226;64997;-59
2023/05/15 07:20:45;;;;;;;;;;;;;;;19.42;63.63;96703.56;627545;226;66709;-59
2023/05/15 07:23:12;;;;;;;;;;;;;;;19.42;63.96;96707.02;627689;226;66744;-59
2023/05/15 07:25:39;;;;;;;;;;;;;;;19.41;64.62;96702.77;627659;226;65023;-59
2023/05/15 07:28:07;;;;;;;;;;;;;;;19.41;63.88;96700.11;627672;226;66917;-58
2023/05/15 07:30:35;;;;;;;;;;;;;;;19.41;63.68;96707.31;627545;226;66691;-58
2023/05/15 07:33:02;;;;;;;;;;;;;;;19.42;64.07;96701.70;627718;226;65046;-61
2023/05/15 07:35:30;;;;;;;;;;;;;;;19.42;63.81;96695.57;627586;226;66900;-59
2023/05/15 07:37:57;;;;;;;;;;;;;;;19.43;63.85;96694.52;627659;226;64569;-59
2023/05/15 07:40:25;;;;;;;;;;;;;;;19.42;62.97;96700.90;623407;226;64570;-59
2023/05/15 07:42:52;;;;;;;;;;;;;;;19.43;62.90;96710.52;620488;228;67192;-59
2023/05/15 07:45:20;;;;;;;;;;;;;;;19.43;63.48;96713.97;620484;228;67358;-59
2023/05/15 07:47:48;;;;;;;;;;;;;;;19.42;62.29;96720.34;620520;228;62910;-58
2023/05/15 07:50:16;;;;;;;;;;;;;;;19.42;63.81;96723.02;620525;228;64972;-58
2023/05/15 07:52:44;;;;;;;;;;;;;;;19.44;63.62;96720.09;620466;228;64949;-59
2023/05/15 07:55:11;;;;;;;;;;;;;;;19.43;63.73;96710.52;620420;228;63011;-59
2023/05/15 07:57:39;;;;;;;;;;;;;;;19.44;58.04;96718.22;620488;228;64383;-59
2023/05/15 08:00:12;;;;;;;;;;;;;;;19.47;61.96;96724.88;620426;228;67060;-62
2023/05/15 08:02:39;;;;;;;;;;;;;;;19.46;62.27;96725.97;620544;228;50606;-59
2023/05/15 08:05:07;;;;;;;;;;;;;;;19.46;62.45;96736.63;620310;228;64558;-59
2023/05/15 08:07:35;;;;;;;;;;;;;;;19.45;62.85;96746.48;620160;228;67003;-59
2023/05/15 08:10:04;;;;;;;;;;;;;;;19.44;62.84;96747.54;620341;228;63051;-59
2023/05/15 08:12:32;;;;;;;;;;;;;;;19.44;63.65;96760.86;619509;228;67505;-63
2023/05/15 08:15:00;;;;;;;;;;;;;;;19.44;63.30;96762.73;607952;230;67088;-59
2023/05/15 08:17:27;;;;;;;;;;;;;;;19.44;63.97;96760.07;607825;232;65044;-59
2023/05/15 08:19:55;;;;;;;;;;;;;;;19.44;63.44;96754.73;607589;232;67297;-59
2023/05/15 08:22:22;;;;;;;;;;;;;;;19.44;63.63;96744.08;607699;231;67042;-58
2023/05/15 08:24:50;;;;;;;;;;;;;;;19.43;63.72;96729.96;607806;232;65023;-59
2023/05/15 08:27:17;;;;;;;;;;;;;;;19.44;63.51;96736.88;607571;232;67328;-60
2023/05/15 08:29:45;;;;;;;;;;;;;;;19.44;63.52;96738.75;603825;230;64175;-59
2023/05/15 08:32:12;;;;;;;;;;;;;;;19.44;63.64;96739.55;604171;229;65139;-58
2023/05/15 08:34:40;;;;;;;;;;;;;;;19.43;63.96;96731.83;615615;230;67186;-58
2023/05/15 08:37:07;;;;;;;;;;;;;;;19.44;63.03;96741.41;612626;230;67035;-60
2023/05/15 08:39:35;;;;;;;;;;;;;;;19.44;62.99;96730.75;615970;230;65056;-58
2023/05/15 08:42:16;;;;;;;;;;;;;;;19.44;64.86;96717.43;615924;230;67217;-58
2023/05/15 08:44:44;;;;;;;;;;;;;;;19.44;64.04;96728.09;615839;230;64870;-60
2023/05/15 08:47:13;;;;;;;;;;;;;;;19.44;64.02;96738.75;615764;230;65114;-61
2023/05/15 08:49:45;;;;;;;;;;;;;;;19.42;63.60;96752.33;615926;230;65039;-61
2023/05/15 08:52:13;;;;;;;;;;;;;;;19.43;63.70;96756.61;615261;230;64606;-60
2023/05/15 08:54:40;;;;;;;;;;;;;;;19.43;63.32;96764.61;615556;230;63206;-61
2023/05/15 08:57:09;;;;;;;;;;;;;;;19.43;64.04;96755.81;615601;230;65067;-60
2023/05/15 08:59:38;;;;;;;;;;;;;;;19.43;63.42;96759.27;615884;230;67371;-58
2023/05/15 09:02:07;;;;;;;;;;;;;;;19.43;64.21;96759.27;615875;230;45166;-58
2023/05/15 09:04:34;;;;;;;;;;;;;;;19.43;64.08;96751.28;615341;230;64764;-58
2023/05/15 09:07:03;;;;;;;;;;;;;;;19.43;64.52;96753.15;616040;230;66834;-58
2023/05/15 09:09:33;;;;;;;;;;;;;;;19.43;64.38;96750.48;615941;230;65013;-59
2023/05/15 09:12:01;;;;;;;;;;;;;;;19.42;59.80;96746.20;615906;230;66275;-61
2023/05/15 09:14:28;;;;;;;;;;;;;;;19.44;62.44;96741.41;620982;228;64914;-59
2023/05/15 09:16:56;;;;;;;;;;;;;;;19.44;63.17;96736.09;621214;228;63002;-58
2023/05/15 09:19:23;;;;;;;;;;;;;;;19.43;63.09;96729.16;622236;226;64663;-59
2023/05/15 09:21:51;;;;;;;;;;;;;;;19.42;62.21;96739.00;626446;226;64949;-59
2023/05/15 09:24:23;;;;;;;;;;;;;;;19.42;62.97;96728.34;626371;226;62892;-58
2023/05/15 09:26:52;;;;;;;;;;;;;;;19.43;63.59;96724.63;626413;226;67423;-58
2023/05/15 09:29:20;;;;;;;;;;;;;;;19.42;63.47;96730.22;625689;226;67055;-58
2023/05/15 09:31:47;;;;;;;;;;;;;;;19.42;63.25;96727.55;626464;226;63000;-58
2023/05/15 09:34:15;;;;;;;;;;;;;;;19.41;62.89;96724.09;626435;226;65147;-59
2023/05/15 09:36:43;;;;;;;;;;;;;;;19.41;63.08;96725.96;626443;226;64903;-62
2023/05/15 09:39:11;;;;;;;;;;;;;;;19.41;62.68;96725.96;626406;226;65045;-58
2023/05/15 09:41:40;;;;;;;;;;;;;;;19.41;63.47;96731.29;626416;226;67179;-60
2023/05/15 09:44:09;;;;;;;;;;;;;;;19.42;63.31;96727.55;626256;226;67027;-60
2023/05/15 09:46:36;;;;;;;;;;;;;;;19.41;63.61;96734.75;626053;226;72284;-59
2023/05/15 09:49:04;;;;;;;;;;;;;;;19.40;62.93;96732.38;626376;226;67504;-60
2023/05/15 09:51:31;;;;;;;;;;;;;;;19.41;63.41;96740.08;626375;226;67048;-60
2023/05/15 09:53:59;;;;;;;;;;;;;;;19.40;62.90;96738.49;626407;226;65095;-60
2023/05/15 09:56:26;;;;;;;;;;;;;;;19.42;58.83;96727.55;626391;226;67188;-61
2023/05/15 09:58:54;;;;;;;;;;;;;;;19.43;62.87;96737.16;626384;226;66998;-60
2023/05/15 10:01:26;;;;;;;;;;;;;;;19.42;63.70;96731.01;626419;226;63009;-60
2023/05/15 10:03:58;;;;;;;;;;;;;;;19.42;64.63;96715.02;626407;226;67151;-60
2023/05/15 10:06:26;;;;;;;;;;;;;;;19.43;64.84;96718.51;626225;226;64550;-60
2023/05/15 10:08:54;;;;;;;;;;;;;;;19.41;65.11;96718.77;626384;226;63024;-60
2023/05/15 10:11:22;;;;;;;;;;;;;;;19.40;64.86;96719.84;626482;226;67217;-60
2023/05/15 10:13:50;;;;;;;;;;;;;;;19.40;64.68;96716.38;627173;226;67363;-60
2023/05/15 10:16:20;;;;;;;;;;;;;;;19.41;64.74;96724.09;627740;226;65025;-61
2023/05/15 10:18:48;;;;;;;;;;;;;;;19.40;64.11;96717.17;627701;226;67144;-60
2023/05/15 10:21:17;;;;;;;;;;;;;;;19.40;63.81;96711.05;627622;226;66956;-60
2023/05/15 10:23:45;;;;;;;;;;;;;;;19.41;63.96;96708.10;627631;226;65125;-60
2023/05/15 10:26:17;;;;;;;;;;;;;;;19.42;64.71;96698.23;627646;226;67268;-60
2023/05/15 10:28:46;;;;;;;;;;;;;;;19.41;65.13;96689.45;627478;225;67121;-60
2023/05/15 10:31:13;;;;;;;;;;;;;;;19.41;64.57;96686.78;627588;226;63085;-60
2023/05/15 10:33:41;;;;;;;;;;;;;;;19.43;59.45;96689.19;627586;226;66916;-61
2023/05/15 10:36:10;;;;;;;;;;;;;;;19.45;63.53;96703.85;627653;226;67047;-60
2023/05/15 10:38:39;;;;;;;;;;;;;;;19.45;60.49;96692.36;627717;226;62989;-60
2023/05/15 10:41:06;;;;;;;;;;;;;;;19.46;63.24;96689.45;627624;226;67279;-60
2023/05/15 10:43:35;;;;;;;;;;;;;;;19.45;63.71;96687.86;627594;225;67139;-60
2023/05/15 10:46:03;;;;;;;;;;;;;;;19.44;63.29;96672.92;627701;225;64851;-60
2023/05/15 10:48:31;;;;;;;;;;;;;;;19.45;63.88;96671.05;627698;226;67171;-60
2023/05/15 10:51:00;;;;;;;;;;;;;;;19.45;64.58;96676.38;627695;226;66853;-60
2023/05/15 10:53:29;;;;;;;;;;;;;;;19.44;62.87;96680.13;627559;226;65206;-60
2023/05/15 10:55:56;;;;;;;;;;;;;;;19.44;64.01;96683.58;627705;226;67246;-60
2023/05/15 10:58:24;;;;;;;;;;;;;;;19.43;63.90;96674.00;627546;226;67139;-60
2023/05/15 11:00:51;;;;;;;;;;;;;;;19.43;63.48;96674.00;627562;226;65072;-60
2023/05/15 11:03:38;;;;;;;;;;;;;;;19.43;64.93;96665.20;627556;226;65004;-60
2023/05/15 11:06:10;;;;;;;;;;;;;;;19.43;64.12;96662.55;627720;226;67174;-59
2023/05/15 11:08:38;;;;;;;;;;;;;;;19.43;63.58;96663.34;627660;226;65058;-59
2023/05/15 11:11:06;;;;;;;;;;;;;;;19.43;63.19;96666.00;627371;226;67222;-59
2023/05/15 11:13:51;;;;;;;;;;;;;;;19.43;63.77;96666.00;627785;225;67038;-60
2023/05/15 11:16:23;;;;;;;;;;;;;;;19.42;59.05;96666.26;627628;226;63018;-60
2023/05/15 11:18:51;;;;;;;;;;;;;;;19.48;63.23;96676.66;623156;226;67209;-60
2023/05/15 11:21:19;;;;;;;;;;;;;;;19.49;62.60;96664.92;627633;226;66535;-60
2023/05/15 11:23:46;;;;;;;;;;;;;;;19.50;62.39;96668.38;627492;225;64960;-60
2023/05/15 11:26:14;;;;;;;;;;;;;;;19.51;63.22;96664.66;627533;226;64684;-60
2023/05/15 11:28:46;;;;;;;;;;;;;;;19.50;61.05;96661.17;627526;226;64938;-61
2023/05/15 11:31:14;;;;;;;;;;;;;;;19.52;61.68;96663.58;627583;226;65260;-60
2023/05/15 11:33:42;;;;;;;;;;;;;;;19.55;63.54;96656.92;627693;225;66915;-60
2023/05/15 11:36:12;;;;;;;;;;;;;;;19.55;62.40;96663.05;627592;226;66819;-61
2023/05/15 11:38:40;;;;;;;;;;;;;;;19.54;62.87;96661.45;627566;225;64951;-60
2023/05/15 11:41:12;;;;;;;;;;;;;;;19.55;62.17;96664.91;627765;226;66883;-60
2023/05/15 11:43:41;;;;;;;;;;;;;;;19.56;63.80;96661.17;625876;225;64950;-60
2023/05/15 11:46:12;;;;;;;;;;;;;;;19.55;62.60;96660.38;627442;226;65063;-60
2023/05/15 11:48:46;;;;;;;;;;;;;;;19.55;62.41;96655.05;627678;226;65363;-59
2023/05/15 11:51:20;;;;;;;;;;;;;;;19.56;61.37;96663.83;627515;226;67071;-59
2023/05/15 11:53:52;;;;;;;;;;;;;;;19.57;63.82;96676.91;627521;225;65032;-60
2023/05/15 11:56:20;;;;;;;;;;;;;;;19.57;62.59;96679.57;627753;225;67468;-60
2023/05/15 11:58:49;;;;;;;;;;;;;;;19.58;62.85;96675.83;627659;226;64481;-61
2023/05/15 12:01:17;;;;;;;;;;;;;;;19.58;63.12;96659.04;627360;226;63076;-60
2023/05/15 12:03:46;;;;;;;;;;;;;;;19.57;63.54;96666.24;627581;226;64920;-59
2023/05/15 12:06:14;;;;;;;;;;;;;;;19.56;62.89;96663.83;627460;226;67795;-59
2023/05/15 12:08:43;;;;;;;;;;;;;;;19.54;63.45;96663.33;627618;226;65088;-59
2023/05/15 12:11:12;;;;;;;;;;;;;;;19.53;63.43;96665.17;627546;225;67169;-59
2023/05/15 12:13:39;;;;;;;;;;;;;;;19.52;64.44;96667.05;627612;225;67075;-60
2023/05/15 12:16:07;;;;;;;;;;;;;;;19.51;64.93;96668.13;627514;226;65085;-60
2023/05/15 12:18:34;;;;;;;;;;;;;;;19.51;65.26;96676.12;627562;225;67042;-59
2023/05/15 12:21:04;;;;;;;;;;;;;;;19.50;65.07;96690.49;627572;226;67023;-59
2023/05/15 12:23:31;;;;;;;;;;;;;;;19.49;64.87;96693.44;627496;226;65051;-59
2023/05/15 12:26:00;;;;;;;;;;;;;;;19.50;65.07;96695.03;627565;226;67233;-59
2023/05/15 12:28:29;;;;;;;;;;;;;;;19.49;65.30;96702.23;627559;225;64887;-59
2023/05/15 12:30:57;;;;;;;;;;;;;;;19.49;65.57;96698.77;627511;226;65036;-60
2023/05/15 12:33:25;;;;;;;;;;;;;;;19.50;65.53;96716.34;627614;226;67212;-59
2023/05/15 12:35:56;;;;;;;;;;;;;;;19.49;65.45;96726.22;627516;226;64721;-59
2023/05/15 12:38:23;;;;;;;;;;;;;;;19.48;65.09;96727.30;627608;226;63107;-59
2023/05/15 12:40:57;;;;;;;;;;;;;;;19.48;65.21;96729.96;627515;226;64861;-59
2023/05/15 12:43:23;;;;;;;;;;;;;;;19.48;65.47;96727.30;627225;226;67652;-59
2023/05/15 12:45:51;;;;;;;;;;;;;;;19.48;65.60;96723.84;627573;226;65059;-59
2023/05/15 12:48:20;;;;;;;;;;;;;;;19.47;66.19;96723.02;627686;225;66970;-60
2023/05/15 12:50:48;;;;;;;;;;;;;;;19.47;65.39;96720.34;627555;225;64820;-59
2023/05/15 12:53:16;;;;;;;;;;;;;;;19.47;65.30;96712.36;627479;226;65086;-59